Time;durP1;ratioP1;P1;durP2;ratioP2;P2;SDS_P1;SDS_P2;PMS_P1;PMS_P2;Temp;Humidity;BMP_temperature;BMP_pressure;BME280_temperature;BME280_humidity;BME280_pressure;Samples;Min_cycle;Max_cycle;Signal;HPM_P1;HPM_P2
2022/08/27 00:01:52;;;;;;;9.32;2.08;;;16.60;99.90;;;;;;5129309;28;20044;-78
2022/08/27 00:04:18;;;;;;;6.72;2.22;;;16.60;99.90;;;;;;5117710;28;20066;-79
2022/08/27 00:06:44;;;;;;;6.57;2.03;;;16.60;99.90;;;;;;5113229;28;20074;-80
2022/08/27 00:09:09;;;;;;;7.28;2.05;;;16.70;99.90;;;;;;5113610;28;20043;-79
2022/08/27 00:11:35;;;;;;;6.30;2.03;;;16.80;99.90;;;;;;5114187;28;20073;-79
2022/08/27 00:14:03;;;;;;;9.55;2.20;;;16.80;99.90;;;;;;5115673;28;20054;-79
2022/08/27 00:16:28;;;;;;;6.10;2.13;;;16.80;99.90;;;;;;5104793;28;20511;-79
2022/08/27 00:18:55;;;;;;;8.13;1.90;;;16.80;99.90;;;;;;5114256;28;20078;-79
2022/08/27 00:21:22;;;;;;;6.32;1.95;;;16.80;99.90;;;;;;5115350;28;20116;-80
2022/08/27 00:23:47;;;;;;;9.88;2.70;;;16.90;99.90;;;;;;5109383;28;20092;-79
2022/08/27 00:26:14;;;;;;;10.18;2.13;;;16.90;99.90;;;;;;5115909;28;20073;-79
2022/08/27 00:28:41;;;;;;;9.02;2.22;;;16.90;99.90;;;;;;5115173;28;20040;-80
2022/08/27 00:31:07;;;;;;;4.13;1.90;;;16.90;99.90;;;;;;5115767;28;20047;-79
2022/08/27 00:33:34;;;;;;;9.60;2.10;;;16.80;99.90;;;;;;5112972;28;20087;-79
2022/08/27 00:36:00;;;;;;;7.75;2.88;;;16.80;99.90;;;;;;5100674;28;20044;-80
2022/08/27 00:38:26;;;;;;;5.22;2.10;;;16.80;99.90;;;;;;5107655;28;20071;-80
2022/08/27 00:40:52;;;;;;;5.88;2.00;;;16.80;99.90;;;;;;5112487;28;20487;-80
2022/08/27 00:43:26;;;;;;;5.90;1.80;;;16.80;99.90;;;;;;5101904;28;20131;-80
2022/08/27 00:45:57;;;;;;;4.20;1.90;;;16.80;99.90;;;;;;5102342;28;20080;-81
2022/08/27 00:48:26;;;;;;;6.75;2.10;;;16.80;99.90;;;;;;5094167;28;20048;-80
2022/08/27 00:50:54;;;;;;;7.93;2.40;;;16.80;99.90;;;;;;5100804;28;20035;-80
2022/08/27 00:53:25;;;;;;;6.50;2.10;;;16.80;99.90;;;;;;5116927;27;20059;-80
2022/08/27 00:55:53;;;;;;;8.93;2.40;;;16.80;99.90;;;;;;5114561;28;20114;-82
2022/08/27 00:58:28;;;;;;;8.07;2.03;;;16.80;99.90;;;;;;5109048;28;20491;-80
2022/08/27 01:00:55;;;;;;;6.85;2.10;;;16.80;99.90;;;;;;5116170;28;20035;-79
2022/08/27 01:03:24;;;;;;;5.53;1.95;;;16.80;99.90;;;;;;5112806;28;20484;-81
2022/08/27 01:05:52;;;;;;;6.43;2.17;;;16.80;99.90;;;;;;5101231;28;20099;-79
2022/08/27 01:08:26;;;;;;;5.95;2.22;;;16.70;99.90;;;;;;5101255;28;20040;-81
2022/08/27 01:10:56;;;;;;;9.80;2.40;;;16.80;99.90;;;;;;5099946;28;20035;-81
2022/08/27 01:13:24;;;;;;;5.00;2.08;;;16.80;99.90;;;;;;5112339;28;20445;-80
2022/08/27 01:15:51;;;;;;;;;;;16.70;99.90;;;;;;5104220;28;20036;-79
2022/08/27 01:18:18;;;;;;;7.78;2.35;;;16.70;99.90;;;;;;5116159;28;19986;-79
2022/08/27 01:20:46;;;;;;;7.68;2.35;;;16.70;99.90;;;;;;5122967;28;20514;-82
2022/08/27 01:23:22;;;;;;;8.75;2.75;;;16.70;99.90;;;;;;5117394;28;20036;-81
2022/08/27 01:25:48;;;;;;;7.63;2.30;;;16.70;99.90;;;;;;5123979;28;20059;-81
2022/08/27 01:28:15;;;;;;;5.35;2.03;;;16.70;99.90;;;;;;5114488;28;20044;-80
2022/08/27 01:30:41;;;;;;;8.15;1.92;;;16.70;99.90;;;;;;5096278;28;20043;-80
2022/08/27 01:33:16;;;;;;;7.43;2.20;;;16.70;99.90;;;;;;5111665;28;20395;-81
2022/08/27 01:35:43;;;;;;;6.50;2.00;;;16.70;99.90;;;;;;5115373;28;20039;-80
2022/08/27 01:38:09;;;;;;;4.97;1.98;;;16.70;99.90;;;;;;5113217;28;20058;-81
2022/08/27 01:40:36;;;;;;;8.07;1.90;;;16.60;99.90;;;;;;5102042;28;20502;-80
2022/08/27 01:43:02;;;;;;;31.02;2.20;;;16.60;99.90;;;;;;5114488;28;20497;-81
2022/08/27 01:45:35;;;;;;;5.88;2.00;;;16.50;99.90;;;;;;5112454;28;20131;-81
2022/08/27 01:48:02;;;;;;;10.77;2.30;;;16.40;99.90;;;;;;5101955;28;20044;-80
2022/08/27 01:50:33;;;;;;;6.72;2.72;;;16.40;99.90;;;;;;5114667;28;20035;-81
2022/08/27 01:53:17;;;;;;;6.15;2.15;;;16.40;99.90;;;;;;5103416;28;20063;-81
2022/08/27 01:55:44;;;;;;;10.18;2.28;;;16.40;99.90;;;;;;5113378;28;20119;-82
2022/08/27 01:58:10;;;;;;;9.52;2.17;;;16.30;99.90;;;;;;5105790;28;20043;-81
2022/08/27 02:00:40;;;;;;;4.97;1.90;;;16.30;99.90;;;;;;5097911;28;20069;-80
2022/08/27 02:03:08;;;;;;;7.60;2.03;;;16.30;99.90;;;;;;5110600;28;20126;-80
2022/08/27 02:05:34;;;;;;;6.57;2.13;;;16.30;99.90;;;;;;5113474;28;20076;-81
2022/08/27 02:08:00;;;;;;;7.80;2.17;;;16.30;99.90;;;;;;5112793;28;20043;-81
2022/08/27 02:10:34;;;;;;;10.18;2.25;;;16.30;99.90;;;;;;5111692;28;20039;-81
2022/08/27 02:13:00;;;;;;;7.63;2.10;;;16.20;99.90;;;;;;5094148;28;20401;-81
2022/08/27 02:15:28;;;;;;;4.43;2.45;;;16.20;99.90;;;;;;5106536;28;20147;-80
2022/08/27 02:17:55;;;;;;;6.32;2.10;;;16.30;99.90;;;;;;5111694;28;20046;-81
2022/08/27 02:20:21;;;;;;;5.95;1.83;;;16.20;99.90;;;;;;5104413;28;20110;-81
2022/08/27 02:22:48;;;;;;;6.47;2.03;;;16.20;99.90;;;;;;5105333;28;20397;-82
2022/08/27 02:25:18;;;;;;;7.32;1.92;;;16.10;99.90;;;;;;5112874;28;20130;-80
2022/08/27 02:27:46;;;;;;;9.60;2.15;;;16.10;99.90;;;;;;5106310;28;20119;-80
2022/08/27 02:30:15;;;;;;;7.13;2.10;;;16.10;99.90;;;;;;5111902;28;20527;-80
2022/08/27 02:32:41;;;;;;;9.50;2.30;;;16.00;99.90;;;;;;5121566;28;20035;-81
2022/08/27 02:35:08;;;;;;;3.70;1.80;;;16.00;99.90;;;;;;5113350;28;20130;-81
2022/08/27 02:37:35;;;;;;;6.00;2.05;;;16.00;99.90;;;;;;5108445;28;20070;-81
2022/08/27 02:40:02;;;;;;;5.63;1.92;;;15.90;99.90;;;;;;5112345;28;20040;-80
2022/08/27 02:42:29;;;;;;;6.07;2.42;;;15.90;99.90;;;;;;5095492;28;20035;-81
2022/08/27 02:44:54;;;;;;;7.45;2.60;;;15.90;99.90;;;;;;5105261;28;20047;-81
2022/08/27 02:47:20;;;;;;;7.28;1.92;;;15.90;99.90;;;;;;5112641;28;20544;-80
2022/08/27 02:49:46;;;;;;;7.05;2.40;;;15.90;99.90;;;;;;5091558;28;20092;-80
2022/08/27 02:52:12;;;;;;;7.60;2.30;;;15.80;99.90;;;;;;5112642;28;20046;-80
2022/08/27 02:54:38;;;;;;;7.20;2.17;;;15.80;99.90;;;;;;5106395;28;20036;-80
2022/08/27 02:57:04;;;;;;;3.78;1.90;;;15.80;99.90;;;;;;5111955;28;20417;-81
2022/08/27 02:59:29;;;;;;;9.20;2.42;;;15.80;99.90;;;;;;5112474;28;20088;-81
2022/08/27 03:01:55;;;;;;;8.80;2.60;;;15.80;99.90;;;;;;5100885;28;20044;-80
2022/08/27 03:04:22;;;;;;;10.13;2.67;;;15.80;99.90;;;;;;5099561;28;20129;-79
2022/08/27 03:06:48;;;;;;;10.18;2.25;;;15.80;99.90;;;;;;5097575;28;20036;-80
2022/08/27 03:09:14;;;;;;;7.85;2.30;;;15.80;99.90;;;;;;5113689;28;20032;-80
2022/08/27 03:11:41;;;;;;;8.57;2.20;;;15.70;99.90;;;;;;5117213;28;20046;-79
2022/08/27 03:14:06;;;;;;;5.63;2.20;;;15.70;99.90;;;;;;5117889;28;20082;-79
2022/08/27 03:16:34;;;;;;;6.50;2.25;;;15.70;99.90;;;;;;5120624;28;20472;-80
2022/08/27 03:19:00;;;;;;;6.38;2.13;;;15.80;99.90;;;;;;5117706;28;20038;-79
2022/08/27 03:21:25;;;;;;;5.18;2.10;;;15.70;99.90;;;;;;5118348;28;20039;-79
2022/08/27 03:23:52;;;;;;;8.70;2.55;;;15.70;99.90;;;;;;5115684;28;20052;-79
2022/08/27 03:26:18;;;;;;;4.80;1.75;;;15.70;99.90;;;;;;5120943;28;20048;-79
2022/08/27 03:28:45;;;;;;;9.52;2.40;;;15.80;99.90;;;;;;5117346;28;20537;-80
2022/08/27 03:31:20;;;;;;;8.20;2.10;;;15.90;99.90;;;;;;5107420;28;20079;-82
2022/08/27 03:33:46;;;;;;;4.78;1.70;;;15.90;99.90;;;;;;5110525;28;20580;-79
2022/08/27 03:36:11;;;;;;;6.18;1.98;;;15.90;99.90;;;;;;5113861;28;20039;-79
2022/08/27 03:38:37;;;;;;;7.40;1.75;;;15.90;99.90;;;;;;5115702;28;20408;-77
2022/08/27 03:41:04;;;;;;;8.52;1.90;;;15.90;99.90;;;;;;5111084;28;20052;-79
2022/08/27 03:43:30;;;;;;;6.95;2.00;;;15.90;99.90;;;;;;5115649;28;20483;-79
2022/08/27 03:45:55;;;;;;;8.85;2.20;;;15.90;99.90;;;;;;5110816;28;20043;-78
2022/08/27 03:48:21;;;;;;;7.22;1.90;;;15.80;99.90;;;;;;5120130;28;20379;-78
2022/08/27 03:50:49;;;;;;;6.10;2.05;;;15.80;99.90;;;;;;5125697;28;20051;-79
2022/08/27 03:53:16;;;;;;;6.70;1.70;;;15.80;99.90;;;;;;5120308;28;20048;-79
2022/08/27 03:55:42;;;;;;;4.77;1.90;;;15.80;99.90;;;;;;5111930;28;20066;-78
2022/08/27 03:58:11;;;;;;;6.93;1.98;;;15.70;99.90;;;;;;5115927;28;20285;-79
2022/08/27 04:00:38;;;;;;;6.65;1.77;;;15.70;99.90;;;;;;5115277;28;20028;-79
2022/08/27 04:03:04;;;;;;;6.05;2.05;;;15.70;99.90;;;;;;5115436;28;20058;-79
2022/08/27 04:05:31;;;;;;;6.20;1.80;;;15.70;99.90;;;;;;5110749;28;20040;-79
2022/08/27 04:07:57;;;;;;;10.05;2.35;;;15.70;99.90;;;;;;5115702;28;20567;-79
2022/08/27 04:10:23;;;;;;;7.82;1.90;;;15.60;99.90;;;;;;5110420;28;20134;-78
2022/08/27 04:12:49;;;;;;;5.75;1.90;;;15.80;99.90;;;;;;5114447;28;20039;-79
2022/08/27 04:15:14;;;;;;;6.50;2.22;;;15.80;99.90;;;;;;5114229;28;20051;-79
2022/08/27 04:17:41;;;;;;;5.40;1.77;;;15.80;99.90;;;;;;5115780;28;20063;-77
2022/08/27 04:20:09;;;;;;;4.65;2.10;;;15.80;99.90;;;;;;5115023;28;20035;-78
2022/08/27 04:22:35;;;;;;;7.07;1.90;;;15.80;99.90;;;;;;5102103;28;20036;-77
2022/08/27 04:25:01;;;;;;;7.35;2.30;;;15.80;99.90;;;;;;5123160;28;20496;-79
2022/08/27 04:27:27;;;;;;;7.38;1.95;;;15.70;99.90;;;;;;5121603;28;20043;-78
2022/08/27 04:29:55;;;;;;;9.25;2.38;;;15.70;99.90;;;;;;5099870;28;20054;-78
2022/08/27 04:32:22;;;;;;;5.43;1.73;;;15.70;99.90;;;;;;5109078;28;20036;-79
2022/08/27 04:34:48;;;;;;;7.85;2.20;;;15.60;99.90;;;;;;5112918;28;20118;-79
2022/08/27 04:37:13;;;;;;;6.32;1.98;;;15.60;99.90;;;;;;5106838;28;20131;-80
2022/08/27 04:39:39;;;;;;;5.40;1.95;;;15.50;99.90;;;;;;5113843;28;20047;-79
2022/08/27 04:42:05;;;;;;;8.00;1.70;;;15.50;99.90;;;;;;5102137;28;20502;-79
2022/08/27 04:44:32;;;;;;;9.40;2.30;;;15.50;99.90;;;;;;5111188;28;20391;-80
2022/08/27 04:47:00;;;;;;;5.88;2.20;;;15.40;99.90;;;;;;5111393;28;20039;-79
2022/08/27 04:49:28;;;;;;;9.15;2.53;;;15.40;99.90;;;;;;5116259;28;20129;-79
2022/08/27 04:51:53;;;;;;;9.75;1.90;;;15.40;99.90;;;;;;5109086;28;20050;-80
2022/08/27 04:54:19;;;;;;;4.40;1.73;;;15.40;99.90;;;;;;5115253;28;20122;-80
2022/08/27 04:56:45;;;;;;;9.38;2.30;;;15.50;99.90;;;;;;5113014;28;20426;-80
2022/08/27 04:59:11;;;;;;;5.45;1.92;;;15.60;99.90;;;;;;5105883;28;20042;-80
2022/08/27 05:01:39;;;;;;;6.95;2.00;;;15.60;99.90;;;;;;5114650;28;20063;-78
2022/08/27 05:04:05;;;;;;;10.32;2.00;;;15.60;99.90;;;;;;5128642;28;20039;-79
2022/08/27 05:06:31;;;;;;;7.00;2.05;;;15.70;99.90;;;;;;5128415;28;20046;-79
2022/08/27 05:08:57;;;;;;;9.60;2.05;;;15.70;99.90;;;;;;5114026;28;20043;-79
2022/08/27 05:11:27;;;;;;;7.95;2.50;;;15.80;99.90;;;;;;5095703;28;20052;-79
2022/08/27 05:13:52;;;;;;;6.30;2.05;;;15.90;99.90;;;;;;5113475;28;20047;-78
2022/08/27 05:16:21;;;;;;;7.88;2.33;;;16.00;99.90;;;;;;5114472;28;20048;-79
2022/08/27 05:18:49;;;;;;;7.78;2.10;;;16.10;99.90;;;;;;5114310;28;20047;-79
2022/08/27 05:21:21;;;;;;;4.82;2.20;;;16.20;99.90;;;;;;5111425;28;20082;-79
2022/08/27 05:23:47;;;;;;;7.45;1.90;;;16.20;99.90;;;;;;5114764;28;20044;-79
2022/08/27 05:26:13;;;;;;;7.20;2.03;;;16.30;99.90;;;;;;5113527;28;20040;-80
2022/08/27 05:28:39;;;;;;;9.77;2.10;;;16.30;99.90;;;;;;5109128;28;20048;-79
2022/08/27 05:31:07;;;;;;;9.52;2.22;;;16.40;99.90;;;;;;5113569;28;20054;-80
2022/08/27 05:33:33;;;;;;;7.60;2.17;;;16.40;99.90;;;;;;5102011;28;20120;-79
2022/08/27 05:35:59;;;;;;;9.13;2.75;;;16.40;99.90;;;;;;5105831;28;20091;-78
2022/08/27 05:38:27;;;;;;;7.40;2.25;;;16.50;99.90;;;;;;5106497;28;20085;-79
2022/08/27 05:41:03;;;;;;;;;;;16.50;99.90;;;;;;5115305;28;20054;-78
2022/08/27 05:43:30;;;;;;;11.00;2.05;;;16.60;99.90;;;;;;5109137;28;19964;-78
2022/08/27 05:45:56;;;;;;;6.55;2.00;;;16.70;99.90;;;;;;5112998;27;20047;-78
2022/08/27 05:48:22;;;;;;;7.75;2.45;;;16.70;99.90;;;;;;5130374;27;20040;-78
2022/08/27 05:50:48;;;;;;;9.95;2.35;;;16.80;99.90;;;;;;5107013;28;20032;-77
2022/08/27 05:53:13;;;;;;;9.90;2.35;;;16.80;99.90;;;;;;5105435;28;20050;-79
2022/08/27 05:55:42;;;;;;;8.23;2.30;;;16.80;99.90;;;;;;5112523;28;20035;-77
2022/08/27 06:01:03;;;;;;;7.15;2.45;;;16.90;99.90;;;;;;5101044;28;20488;-79
2022/08/27 06:01:03;;;;;;;9.82;2.60;;;16.90;99.90;;;;;;5103925;28;20192;-79
2022/08/27 06:03:33;;;;;;;7.82;1.90;;;16.90;99.90;;;;;;5114043;27;20518;-79
2022/08/27 06:06:04;;;;;;;11.85;2.33;;;17.00;99.90;;;;;;5111583;28;20054;-79
2022/08/27 06:08:30;;;;;;;6.57;2.50;;;17.00;99.90;;;;;;5113172;28;20733;-78
2022/08/27 06:10:56;;;;;;;7.20;2.20;;;17.00;99.90;;;;;;5096169;28;20051;-81
2022/08/27 06:13:22;;;;;;;4.30;1.75;;;17.10;99.90;;;;;;5113155;28;20043;-80
2022/08/27 06:15:49;;;;;;;6.75;2.08;;;17.10;99.90;;;;;;5102738;28;20499;-80
2022/08/27 06:18:15;;;;;;;7.25;2.15;;;17.20;99.90;;;;;;5095489;28;20062;-80
2022/08/27 06:20:40;;;;;;;7.90;2.10;;;17.20;99.90;;;;;;5108348;28;20047;-80
2022/08/27 06:23:06;;;;;;;11.52;2.95;;;17.30;99.90;;;;;;5122038;28;20032;-81
2022/08/27 06:25:32;;;;;;;8.10;2.28;;;17.30;99.90;;;;;;5113158;28;20043;-81
2022/08/27 06:27:58;;;;;;;8.85;2.10;;;17.40;99.90;;;;;;5112273;28;20047;-81
2022/08/27 06:30:24;;;;;;;7.70;2.03;;;17.40;99.90;;;;;;5112960;28;20063;-81
2022/08/27 06:32:50;;;;;;;13.05;2.05;;;17.50;99.90;;;;;;5111739;28;20039;-80
2022/08/27 06:35:17;;;;;;;8.98;2.03;;;17.50;99.90;;;;;;5111716;28;20063;-81
2022/08/27 06:37:43;;;;;;;8.07;2.67;;;17.60;99.90;;;;;;5112796;28;20044;-78
2022/08/27 06:40:09;;;;;;;6.75;2.33;;;17.70;99.90;;;;;;5112096;28;20050;-80
2022/08/27 06:42:36;;;;;;;6.03;2.55;;;17.80;99.90;;;;;;5112338;28;20118;-81
2022/08/27 06:45:03;;;;;;;7.50;2.23;;;17.80;99.90;;;;;;5113831;28;20609;-80
2022/08/27 06:47:32;;;;;;;11.48;2.00;;;17.90;99.90;;;;;;5114851;28;20039;-79
2022/08/27 06:49:58;;;;;;;5.97;1.90;;;18.10;99.90;;;;;;5116985;28;20036;-80
2022/08/27 06:52:24;;;;;;;10.43;2.22;;;18.30;99.90;;;;;;5117617;28;20062;-81
2022/08/27 06:54:49;;;;;;;7.85;2.03;;;18.40;99.90;;;;;;5116618;28;20038;-79
2022/08/27 06:57:15;;;;;;;9.32;2.13;;;18.40;99.90;;;;;;5115843;28;20050;-79
2022/08/27 06:59:43;;;;;;;14.82;2.13;;;18.50;99.90;;;;;;5102333;28;20081;-79
2022/08/27 07:02:09;;;;;;;6.78;1.95;;;18.40;99.90;;;;;;5111525;28;20032;-81
2022/08/27 07:04:35;;;;;;;8.68;2.00;;;18.60;99.90;;;;;;5111562;28;20055;-80
2022/08/27 07:07:02;;;;;;;11.10;2.63;;;18.70;99.90;;;;;;5116892;28;20047;-79
2022/08/27 07:09:30;;;;;;;9.20;2.45;;;18.80;99.90;;;;;;5102547;28;20069;-78
2022/08/27 07:11:56;;;;;;;5.88;1.80;;;19.00;99.90;;;;;;5109140;28;20044;-78
2022/08/27 07:14:22;;;;;;;7.75;2.40;;;19.10;99.90;;;;;;5116912;28;20142;-81
2022/08/27 07:16:49;;;;;;;10.95;2.00;;;19.30;99.90;;;;;;5123014;28;20043;-78
2022/08/27 07:19:15;;;;;;;14.23;2.10;;;19.50;99.90;;;;;;5132363;28;20456;-82
2022/08/27 07:21:41;;;;;;;11.52;1.98;;;19.40;99.90;;;;;;5138244;28;20035;-83
2022/08/27 07:24:08;;;;;;;9.43;2.10;;;19.40;99.90;;;;;;5136665;28;20407;-83
2022/08/27 07:26:36;;;;;;;10.82;1.92;;;19.30;99.90;;;;;;5115352;28;20052;-80
2022/08/27 07:29:05;;;;;;;12.05;2.22;;;19.20;99.90;;;;;;5130076;28;20035;-83
2022/08/27 07:31:30;;;;;;;10.68;2.38;;;19.20;99.90;;;;;;5137873;28;20073;-80
2022/08/27 07:33:56;;;;;;;11.55;2.80;;;19.20;99.90;;;;;;5140314;27;20044;-83
2022/08/27 07:36:23;;;;;;;10.15;2.00;;;19.10;99.90;;;;;;5134259;28;20051;-82
2022/08/27 07:38:51;;;;;;;9.43;2.10;;;19.20;99.90;;;;;;5135154;28;20051;-82
2022/08/27 07:41:17;;;;;;;11.68;2.00;;;19.10;99.90;;;;;;5128857;27;20044;-82
2022/08/27 07:46:27;;;;;;;10.13;1.80;;;19.00;99.90;;;;;;5108179;28;20059;-80
2022/08/27 07:48:55;;;;;;;6.07;1.90;;;19.00;99.90;;;;;;5117704;28;20039;-82
2022/08/27 07:51:22;;;;;;;8.25;2.03;;;19.10;99.90;;;;;;5117389;28;20043;-81
2022/08/27 07:53:48;;;;;;;7.40;2.20;;;19.00;99.90;;;;;;5119418;28;20495;-81
2022/08/27 07:56:14;;;;;;;13.55;2.28;;;19.10;99.90;;;;;;5118670;28;20044;-84
2022/08/27 07:58:41;;;;;;;14.27;2.40;;;19.10;99.90;;;;;;5116686;28;20085;-86
2022/08/27 08:01:08;;;;;;;7.77;2.00;;;19.00;99.90;;;;;;5099464;28;20044;-77
2022/08/27 08:03:34;;;;;;;10.57;1.80;;;19.10;99.90;;;;;;5116538;28;20080;-81
2022/08/27 08:06:04;;;;;;;7.15;1.88;;;19.10;99.90;;;;;;5111811;28;20091;-82
2022/08/27 08:08:32;;;;;;;9.65;2.05;;;19.00;99.90;;;;;;5116068;28;20495;-81
2022/08/27 08:10:58;;;;;;;7.50;1.92;;;19.10;99.90;;;;;;5116958;28;20039;-80
2022/08/27 08:13:24;;;;;;;7.15;2.00;;;19.10;99.90;;;;;;5116053;28;20414;-78
2022/08/27 08:15:50;;;;;;;10.07;2.20;;;19.20;99.90;;;;;;5115128;28;20395;-81
2022/08/27 08:18:16;;;;;;;8.52;1.73;;;19.20;99.90;;;;;;5116305;28;20040;-78
2022/08/27 08:20:42;;;;;;;5.60;2.03;;;19.20;99.90;;;;;;5115891;28;20035;-78
2022/08/27 08:23:07;;;;;;;10.63;1.90;;;19.20;99.90;;;;;;5104880;28;20085;-77
2022/08/27 08:25:33;;;;;;;10.27;2.42;;;19.20;99.90;;;;;;5112700;28;20039;-78
2022/08/27 08:27:59;;;;;;;17.98;2.58;;;19.30;99.90;;;;;;5108812;28;20082;-79
2022/08/27 08:30:26;;;;;;;9.07;2.20;;;19.30;99.90;;;;;;5105281;27;20479;-80
2022/08/27 08:32:52;;;;;;;7.43;1.90;;;19.40;99.90;;;;;;5115849;28;20372;-79
2022/08/27 08:35:18;;;;;;;5.55;1.58;;;19.50;99.90;;;;;;5115163;28;20031;-79
2022/08/27 08:37:44;;;;;;;9.32;1.90;;;19.50;99.90;;;;;;5114823;28;20113;-79
2022/08/27 08:40:30;;;;;;;9.93;1.90;;;19.60;99.90;;;;;;5130265;27;20130;-79
2022/08/27 08:42:58;;;;;;;8.38;1.90;;;19.40;99.90;;;;;;5110258;28;20039;-77
2022/08/27 08:45:31;;;;;;;9.80;2.47;;;19.50;99.90;;;;;;5115709;28;20427;-79
2022/08/27 08:48:17;;;;;;;9.15;2.25;;;19.40;99.90;;;;;;5115327;28;20048;-77
2022/08/27 08:50:52;;;;;;;10.65;1.90;;;19.40;99.90;;;;;;5110234;28;20403;-80
2022/08/27 08:53:47;;;;;;;17.20;2.28;;;19.50;99.90;;;;;;5106764;28;20072;-80
2022/08/27 08:56:24;;;;;;;6.82;2.03;;;19.70;99.90;;;;;;5108293;28;20121;-78
2022/08/27 08:59:13;;;;;;;6.88;1.60;;;20.00;99.90;;;;;;5116200;28;20096;-83
2022/08/27 09:01:39;;;;;;;9.85;2.30;;;20.20;99.90;;;;;;5094028;28;20040;-80
2022/08/27 09:04:09;;;;;;;12.32;2.03;;;20.50;99.90;;;;;;5120720;28;20124;-80
2022/08/27 09:06:38;;;;;;;12.48;1.98;;;20.60;99.90;;;;;;5122770;28;20040;-79
2022/08/27 09:09:20;;;;;;;8.55;1.80;;;20.60;99.90;;;;;;5118015;28;20111;-80
2022/08/27 09:11:51;;;;;;;7.30;2.50;;;20.60;99.90;;;;;;5115739;28;20047;-77
2022/08/27 09:14:34;;;;;;;8.02;1.88;;;20.30;99.90;;;;;;5113861;28;20406;-81
2022/08/27 09:17:01;;;;;;;7.75;1.80;;;20.20;99.90;;;;;;5097381;28;20122;-78
2022/08/27 09:19:27;;;;;;;8.43;1.77;;;20.10;99.90;;;;;;5116744;28;20039;-78
2022/08/27 09:22:02;;;;;;;5.07;2.00;;;20.00;99.90;;;;;;5117817;28;20556;-82
2022/08/27 09:24:45;;;;;;;6.03;1.73;;;19.90;99.90;;;;;;5108203;28;20042;-76
2022/08/27 09:27:13;;;;;;;8.85;2.05;;;19.90;99.90;;;;;;5114520;28;20051;-81
2022/08/27 09:29:49;;;;;;;8.85;2.28;;;19.80;99.90;;;;;;5101094;28;20047;-79
2022/08/27 09:32:20;;;;;;;5.75;1.92;;;19.90;99.90;;;;;;5117966;28;20036;-80
2022/08/27 09:34:46;;;;;;;7.60;1.98;;;20.00;99.90;;;;;;5120273;28;20046;-77
2022/08/27 09:37:26;;;;;;;9.32;1.95;;;20.00;99.90;;;;;;5100385;28;20048;-81
2022/08/27 09:40:06;;;;;;;10.93;2.13;;;20.10;99.90;;;;;;5109531;28;20093;-80
2022/08/27 09:42:45;;;;;;;9.77;2.08;;;20.00;99.90;;;;;;5112844;28;20052;-79
2022/08/27 09:45:21;;;;;;;11.02;2.28;;;20.00;99.90;;;;;;5111119;28;20100;-78
2022/08/27 09:48:02;;;;;;;8.45;1.88;;;20.00;99.90;;;;;;5120621;28;20044;-78
2022/08/27 09:50:46;;;;;;;11.55;2.10;;;20.00;99.90;;;;;;5119538;28;20098;-79
2022/08/27 09:53:49;;;;;;;7.07;1.92;;;19.90;99.90;;;;;;5119905;28;20047;-78
2022/08/27 09:56:49;;;;;;;8.95;1.98;;;19.90;99.90;;;;;;5100450;28;20063;-80
2022/08/27 09:59:35;;;;;;;9.70;1.80;;;19.90;99.90;;;;;;5123521;28;20050;-82
2022/08/27 10:02:22;;;;;;;8.98;2.10;;;19.90;99.90;;;;;;5120666;28;20092;-78
2022/08/27 10:04:57;;;;;;;9.30;1.55;;;19.90;99.90;;;;;;5116683;28;20044;-81
2022/08/27 10:07:32;;;;;;;10.05;1.92;;;19.90;99.90;;;;;;5121897;28;20044;-82
2022/08/27 10:10:02;;;;;;;9.52;1.88;;;19.90;99.90;;;;;;5135981;27;20104;-81
2022/08/27 10:12:53;;;;;;;9.10;2.30;;;19.90;99.90;;;;;;5100499;28;20093;-83
2022/08/27 10:15:19;;;;;;;13.90;2.30;;;19.90;99.90;;;;;;5114189;28;20035;-78
2022/08/27 10:17:56;;;;;;;11.20;2.10;;;19.90;99.90;;;;;;5103049;28;20200;-80
2022/08/27 10:20:59;;;;;;;9.10;2.30;;;19.80;99.90;;;;;;5112963;28;20093;-78
2022/08/27 10:23:24;;;;;;;6.55;1.98;;;19.90;99.80;;;;;;5120731;28;20084;-79
2022/08/27 10:26:12;;;;;;;9.45;1.85;;;19.90;99.90;;;;;;5113086;28;20109;-81
2022/08/27 10:28:38;;;;;;;5.07;1.63;;;20.00;99.60;;;;;;5114023;28;20043;-80
2022/08/27 10:31:52;;;;;;;7.28;2.00;;;20.20;99.50;;;;;;5106698;28;20044;-80
2022/08/27 10:34:29;;;;;;;10.30;1.92;;;20.60;99.60;;;;;;5099592;28;20075;-79
2022/08/27 10:37:05;;;;;;;5.07;1.77;;;21.50;99.90;;;;;;5096006;28;20048;-80
2022/08/27 10:39:40;;;;;;;9.38;1.83;;;22.20;96.80;;;;;;5119703;28;20114;-82
2022/08/27 10:42:29;;;;;;;8.40;1.75;;;22.60;95.30;;;;;;5122279;28;20138;-80
2022/08/27 10:45:04;;;;;;;7.70;1.85;;;22.50;94.50;;;;;;5122271;28;20040;-78
2022/08/27 10:47:48;;;;;;;6.85;2.10;;;22.20;94.10;;;;;;5115093;28;20039;-82
2022/08/27 10:50:27;;;;;;;13.10;1.85;;;22.40;94.00;;;;;;5105125;28;20446;-82
2022/08/27 10:53:19;;;;;;;6.88;1.70;;;22.60;95.20;;;;;;5115804;28;20075;-84
2022/08/27 10:55:51;;;;;;;11.45;2.05;;;22.70;95.50;;;;;;5116161;28;20051;-81
2022/08/27 10:58:20;;;;;;;8.20;1.95;;;22.40;94.90;;;;;;5114881;28;20039;-81
2022/08/27 11:01:11;;;;;;;6.57;1.60;;;22.20;95.40;;;;;;5100332;28;20092;-81
2022/08/27 11:03:46;;;;;;;7.40;1.90;;;22.00;95.90;;;;;;5116581;28;20123;-81
2022/08/27 11:06:24;;;;;;;8.23;1.33;;;21.90;96.10;;;;;;5096525;28;20078;-80
2022/08/27 11:08:55;;;;;;;6.22;1.63;;;22.20;95.70;;;;;;5109961;28;20132;-81
2022/08/27 11:11:38;;;;;;;5.47;1.33;;;22.30;96.10;;;;;;5096471;28;20076;-80
2022/08/27 11:14:08;;;;;;;8.15;1.88;;;22.80;95.20;;;;;;5101095;28;20119;-83
2022/08/27 11:16:46;;;;;;;11.63;2.10;;;23.30;94.70;;;;;;5113621;28;20510;-82
2022/08/27 11:19:27;;;;;;;8.60;1.60;;;23.60;93.70;;;;;;5113636;28;20514;-82
2022/08/27 11:22:09;;;;;;;5.70;1.40;;;23.50;93.10;;;;;;5115539;28;20053;-82
2022/08/27 11:24:47;;;;;;;5.93;1.52;;;23.30;92.90;;;;;;5126468;28;20050;-82
2022/08/27 11:27:15;;;;;;;6.68;1.45;;;23.20;92.50;;;;;;5114503;28;20077;-83
2022/08/27 11:29:44;;;;;;;9.80;1.75;;;23.10;91.70;;;;;;5122678;28;20520;-83
2022/08/27 11:32:35;;;;;;;4.78;1.50;;;23.10;92.00;;;;;;5129979;28;20051;-83
2022/08/27 11:35:28;;;;;;;6.22;1.55;;;23.60;92.80;;;;;;5125142;28;20051;-81
2022/08/27 11:38:14;;;;;;;8.35;1.77;;;24.20;91.60;;;;;;5102488;28;20074;-84
2022/08/27 11:40:40;;;;;;;8.90;1.95;;;24.20;91.10;;;;;;5125562;28;20056;-86
2022/08/27 11:43:09;;;;;;;8.63;2.10;;;23.80;91.40;;;;;;5126315;28;20209;-81
2022/08/27 11:45:37;;;;;;;5.25;1.45;;;23.30;91.50;;;;;;5120559;28;20511;-83
2022/08/27 11:48:23;;;;;;;8.40;1.55;;;22.90;92.00;;;;;;5103015;28;20058;-83
2022/08/27 11:51:25;;;;;;;4.68;1.55;;;22.90;92.60;;;;;;5117942;28;20559;-82
2022/08/27 11:54:00;;;;;;;11.38;1.98;;;22.90;92.20;;;;;;5099077;28;20058;-82
2022/08/27 11:56:29;;;;;;;6.47;1.50;;;23.20;92.40;;;;;;5129856;27;20479;-83
2022/08/27 11:59:06;;;;;;;6.97;1.35;;;23.20;92.30;;;;;;5116405;28;20488;-81
2022/08/27 12:01:32;;;;;;;8.67;1.80;;;23.00;91.90;;;;;;5119389;28;20169;-82
2022/08/27 12:04:37;;;;;;;6.50;1.45;;;22.70;92.10;;;;;;5113752;28;20047;-80
2022/08/27 12:07:17;;;;;;;6.88;1.60;;;22.40;91.80;;;;;;5097755;28;20052;-83
2022/08/27 12:09:59;;;;;;;6.05;1.40;;;22.00;92.10;;;;;;5100319;28;20079;-84
2022/08/27 12:12:43;;;;;;;7.05;1.50;;;21.90;92.10;;;;;;5111541;28;20051;-82
2022/08/27 12:15:23;;;;;;;7.80;1.80;;;21.90;92.80;;;;;;5097354;28;20047;-80
2022/08/27 12:18:24;;;;;;;11.35;2.03;;;21.90;92.80;;;;;;5116835;28;20047;-82
2022/08/27 12:21:28;;;;;;;7.80;1.40;;;22.00;92.50;;;;;;5099368;28;20051;-84
2022/08/27 12:24:18;;;;;;;8.20;2.00;;;21.70;93.00;;;;;;5062672;28;20522;-83
2022/08/27 12:26:58;;;;;;;11.65;2.75;;;21.50;93.60;;;;;;5066807;28;20044;-82
2022/08/27 12:29:51;;;;;;;8.68;1.67;;;21.60;93.60;;;;;;5095181;28;20126;-81
2022/08/27 12:32:31;;;;;;;5.93;1.50;;;22.00;92.30;;;;;;5113987;28;20048;-82
2022/08/27 12:35:30;;;;;;;8.65;1.65;;;22.30;93.00;;;;;;5129737;28;20099;-84
2022/08/27 12:38:04;;;;;;;7.60;2.17;;;22.50;92.00;;;;;;5129673;28;20507;-82
2022/08/27 12:40:45;;;;;;;7.07;1.75;;;22.80;91.90;;;;;;5109415;28;20117;-82
2022/08/27 12:43:25;;;;;;;5.70;1.50;;;23.20;91.20;;;;;;5123149;28;20038;-83
2022/08/27 12:45:55;;;;;;;9.52;1.60;;;23.20;90.80;;;;;;5104846;28;20048;-82
2022/08/27 12:48:25;;;;;;;4.88;1.33;;;23.10;91.00;;;;;;5117672;27;20492;-82
2022/08/27 12:51:00;;;;;;;4.45;1.20;;;23.40;91.30;;;;;;5118267;28;20023;-85
2022/08/27 12:53:43;;;;;;;5.38;1.50;;;23.80;90.20;;;;;;5121393;28;20043;-85
2022/08/27 12:56:49;;;;;;;5.82;1.23;;;24.00;86.80;;;;;;5103424;28;20036;-86
2022/08/27 12:59:42;;;;;;;8.25;1.75;;;23.80;88.70;;;;;;5115355;28;20044;-82
2022/08/27 13:02:41;;;;;;;6.40;1.77;;;23.30;90.70;;;;;;5100504;28;20078;-82
2022/08/27 13:05:10;;;;;;;4.80;1.35;;;22.80;91.40;;;;;;5118620;28;20129;-83
2022/08/27 13:07:45;;;;;;;7.05;1.48;;;22.40;92.10;;;;;;5135498;27;20118;-83
2022/08/27 13:10:14;;;;;;;8.15;1.95;;;22.10;92.40;;;;;;5127551;28;20063;-82